الصفحة الرئيسية
METAR-TAF:

METAR-TAF

مطار :

تيجوسيجالبا, هندوراس

دائرة عرض: 14-03N, خط طول: 087-13W, ارتفاع: 994 متر

مراقبة الطقس الحالي

تاريخ ووقت الإصدار 4 دقيقة قبل الساعة 13:00UTC
رياح هادئة
درجة الحرارة 20°درجة مئوية
الرطوبة 73%
ضغط 1020 hPa
الرؤية: 7000 متر
غيوم متفرقة على ارتفاع 2600 قدم
غيوم مفككة على ارتفاع 20000 قدم

METAR: MHTG 231300Z 00000KT 7000 SCT026 BKN200 20/15 Q1020 A3012 NOSIG

زمن: 07:04 (13:04 UTC)

توقعات

تاريخ ووقت الإصدار 2ساعات و 44 دقيقة قبل الساعة 10:20UTC
التوقعات صالحة من23 الساعة 12 UTC إلى 24 الساعة 12 UTC
ريح 4 عقدة من الشمال/الشمال الشرقي
الرؤية 10 كم أو أكثر
غيوم متفرقة على ارتفاع 2800 قدم
أصبح
من 23 الساعة 19 UTC إلى 23 الساعة 21 UTC
ريح 10 عقدة من الشرق
أصبح
من 24 الساعة 00 UTC إلى 24 الساعة 02 UTC
ريح 4 عقدة من الشرق/الشمال الشرقي

TAF: MHTG 231020Z 2312/2412 02004KT 9999 SCT028 TX31/2321Z TN17/2412Z BECMG 2319/2321 08010KT BECMG 2400/2402 06004KT

أرصاد الطقس والتوقعات من أكثر من 4000 مطار (تقارير الطقس للمطار METAR والتنبؤ بالطقس بالمطارTAF).

المحطات المتاحة هي النقط الصفراء والحمراء على الخريطة.

حرك المؤشر فوق النقطة لمعرفة اسم المحطة.

ثم انقر لمعرفة أرصاد وتوقعات الطقس.

لتغيير الخارطة: اضغط على الأزرار الخضراء مع رمز الصليب الأسود للتكبير. على الزر الأخضر مع شرطة للتصغير، أو على الأسهم الخضراء للخرائط المجاورة.


METAR-TAF: